Hornbeck, Louisiana
Current Conditions -  °F | °C
As of 12:56 PM on Saturday 25 Oct 2014 (Local Time) from KAQV Reporting Station
Clear Clear  
Wind Chill: 82°   Ceiling: Unl
Heat Index: 82°   Visibility: 10mi
Dew Point: 54°   Wind: 0mph
Humidity: 38%   Direction: NA
Pressure: 30.13"   Gusts: NA
Location:  31.33°N, 93.4°W
Report Text: KAQV 251756Z AUTO 00000KT 10SM CLR 28/12 A3013 RMK AO2 SLP203 T02780122 10278 20089 58011
Loading
Personal Weather Stations






























Interactive Weather Map
Tropical Storm Tracking
New forecast layout! Learn more

10-Day Weather Forecast

Advertisements
Track Severe Weather on mobile